sensor_id;sensor_type;location;lat;lon;timestamp;pressure;altitude;pressure_sealevel;temperature;humidity
17362;BME280;8798;51.938;4.348;2023-05-09T00:01:05;101680.31;;;17.15;70.52
17362;BME280;8798;51.938;4.348;2023-05-09T00:03:33;101681.13;;;17.15;70.49
17362;BME280;8798;51.938;4.348;2023-05-09T00:06:01;101684.53;;;17.17;70.39
17362;BME280;8798;51.938;4.348;2023-05-09T00:08:31;101686.25;;;17.18;70.69
17362;BME280;8798;51.938;4.348;2023-05-09T00:11:00;101696.22;;;17.18;70.68
17362;BME280;8798;51.938;4.348;2023-05-09T00:13:28;101703.53;;;17.17;70.67
17362;BME280;8798;51.938;4.348;2023-05-09T00:15:56;101693.72;;;17.16;70.43
17362;BME280;8798;51.938;4.348;2023-05-09T00:18:24;101702.53;;;17.18;71.06
17362;BME280;8798;51.938;4.348;2023-05-09T00:20:53;101717.63;;;17.21;70.69
17362;BME280;8798;51.938;4.348;2023-05-09T00:23:22;101723.56;;;17.25;70.88
17362;BME280;8798;51.938;4.348;2023-05-09T00:25:51;101718.28;;;17.23;70.53
17362;BME280;8798;51.938;4.348;2023-05-09T00:28:19;101721.88;;;17.24;70.81
17362;BME280;8798;51.938;4.348;2023-05-09T00:30:47;101717.44;;;17.23;70.99
17362;BME280;8798;51.938;4.348;2023-05-09T00:33:14;101726.44;;;17.23;70.84
17362;BME280;8798;51.938;4.348;2023-05-09T00:35:42;101720.16;;;17.23;70.96
17362;BME280;8798;51.938;4.348;2023-05-09T00:38:10;101724.59;;;17.24;71.18
17362;BME280;8798;51.938;4.348;2023-05-09T00:40:38;101724.59;;;17.24;70.97
17362;BME280;8798;51.938;4.348;2023-05-09T00:43:07;101717.44;;;17.23;71.03
17362;BME280;8798;51.938;4.348;2023-05-09T00:45:35;101716.75;;;17.20;71.06
17362;BME280;8798;51.938;4.348;2023-05-09T00:48:03;101700.00;;;17.17;70.84
17362;BME280;8798;51.938;4.348;2023-05-09T00:50:31;101701.66;;;17.18;71.28
17362;BME280;8798;51.938;4.348;2023-05-09T00:52:59;101715.09;;;17.19;71.26
17362;BME280;8798;51.938;4.348;2023-05-09T00:55:27;101708.81;;;17.19;71.27
17362;BME280;8798;51.938;4.348;2023-05-09T00:57:55;101710.50;;;17.20;71.10
17362;BME280;8798;51.938;4.348;2023-05-09T01:00:25;101718.47;;;17.22;70.79
17362;BME280;8798;51.938;4.348;2023-05-09T01:02:54;101698.94;;;17.18;71.30
17362;BME280;8798;51.938;4.348;2023-05-09T01:05:25;101694.72;;;17.15;71.03
17362;BME280;8798;51.938;4.348;2023-05-09T01:08:01;101684.22;;;17.12;71.03
17362;BME280;8798;51.938;4.348;2023-05-09T01:10:40;101682.34;;;17.13;71.07
17362;BME280;8798;51.938;4.348;2023-05-09T01:13:14;101686.94;;;17.12;71.46
17362;BME280;8798;51.938;4.348;2023-05-09T01:15:54;101674.56;;;17.10;71.57
17362;BME280;8798;51.938;4.348;2023-05-09T01:18:30;101671.00;;;17.09;71.14
17362;BME280;8798;51.938;4.348;2023-05-09T01:21:02;101677.25;;;17.10;71.44
17362;BME280;8798;51.938;4.348;2023-05-09T01:23:49;101676.22;;;17.11;71.45
17362;BME280;8798;51.938;4.348;2023-05-09T01:26:35;101680.66;;;17.12;71.36
17362;BME280;8798;51.938;4.348;2023-05-09T01:29:35;101683.19;;;17.13;71.47
17362;BME280;8798;51.938;4.348;2023-05-09T01:32:06;101680.66;;;17.12;71.77
17362;BME280;8798;51.938;4.348;2023-05-09T01:34:37;101685.06;;;17.13;71.46
17362;BME280;8798;51.938;4.348;2023-05-09T01:37:07;101690.31;;;17.14;71.56
17362;BME280;8798;51.938;4.348;2023-05-09T01:39:37;101685.25;;;17.11;71.45
17362;BME280;8798;51.938;4.348;2023-05-09T01:42:08;101675.38;;;17.10;71.66
17362;BME280;8798;51.938;4.348;2023-05-09T01:44:42;101670.16;;;17.09;71.41
17362;BME280;8798;51.938;4.348;2023-05-09T01:47:10;101653.34;;;17.05;71.69
17362;BME280;8798;51.938;4.348;2023-05-09T01:49:39;101638.41;;;17.01;71.82
17362;BME280;8798;51.938;4.348;2023-05-09T01:52:10;101620.63;;;16.98;71.62
17362;BME280;8798;51.938;4.348;2023-05-09T01:54:40;101619.09;;;16.96;71.70
17362;BME280;8798;51.938;4.348;2023-05-09T01:57:10;101605.88;;;16.93;71.92
17362;BME280;8798;51.938;4.348;2023-05-09T01:59:43;101577.59;;;16.87;71.86
17362;BME280;8798;51.938;4.348;2023-05-09T02:02:11;101579.47;;;16.87;71.89
17362;BME280;8798;51.938;4.348;2023-05-09T02:04:40;101582.16;;;16.87;71.94
17362;BME280;8798;51.938;4.348;2023-05-09T02:07:10;101575.88;;;16.86;72.33
17362;BME280;8798;51.938;4.348;2023-05-09T02:09:38;101585.72;;;16.87;72.04
17362;BME280;8798;51.938;4.348;2023-05-09T02:12:06;101585.72;;;16.87;71.98
17362;BME280;8798;51.938;4.348;2023-05-09T02:14:34;101591.16;;;16.87;72.03
17362;BME280;8798;51.938;4.348;2023-05-09T02:17:03;101586.56;;;16.88;72.25
17362;BME280;8798;51.938;4.348;2023-05-09T02:19:33;101576.91;;;16.85;72.15
17362;BME280;8798;51.938;4.348;2023-05-09T02:22:02;101574.34;;;16.84;72.32
17362;BME280;8798;51.938;4.348;2023-05-09T02:24:31;101573.72;;;16.82;72.39
17362;BME280;8798;51.938;4.348;2023-05-09T02:27:01;101566.56;;;16.81;72.30
17362;BME280;8798;51.938;4.348;2023-05-09T02:29:33;101550.63;;;16.77;72.24
17362;BME280;8798;51.938;4.348;2023-05-09T02:32:08;101553.31;;;16.77;72.12
17362;BME280;8798;51.938;4.348;2023-05-09T02:34:38;101555.03;;;16.79;72.33
17362;BME280;8798;51.938;4.348;2023-05-09T02:37:07;101557.75;;;16.79;72.37
17362;BME280;8798;51.938;4.348;2023-05-09T02:39:36;101560.47;;;16.79;72.51
17362;BME280;8798;51.938;4.348;2023-05-09T02:42:05;101563.19;;;16.79;72.63
17362;BME280;8798;51.938;4.348;2023-05-09T02:44:33;101554.34;;;16.76;72.15
17362;BME280;8798;51.938;4.348;2023-05-09T02:47:02;101550.78;;;16.76;72.30
17362;BME280;8798;51.938;4.348;2023-05-09T02:49:32;101564.19;;;16.77;72.37
17362;BME280;8798;51.938;4.348;2023-05-09T02:52:00;101559.63;;;16.78;72.35
17362;BME280;8798;51.938;4.348;2023-05-09T02:54:28;101563.34;;;16.77;72.42
17362;BME280;8798;51.938;4.348;2023-05-09T02:56:56;101549.94;;;16.75;72.41
17362;BME280;8798;51.938;4.348;2023-05-09T02:59:25;101552.81;;;16.74;72.09
17362;BME280;8798;51.938;4.348;2023-05-09T03:01:53;101529.44;;;16.73;72.86
17362;BME280;8798;51.938;4.348;2023-05-09T03:04:21;101535.88;;;16.72;72.55
17362;BME280;8798;51.938;4.348;2023-05-09T03:06:50;101540.28;;;16.73;72.45
17362;BME280;8798;51.938;4.348;2023-05-09T03:09:18;101544.66;;;16.74;72.84
17362;BME280;8798;51.938;4.348;2023-05-09T03:11:45;101557.06;;;16.76;72.38
17362;BME280;8798;51.938;4.348;2023-05-09T03:14:13;101565.91;;;16.79;72.76
17362;BME280;8798;51.938;4.348;2023-05-09T03:16:41;101571.31;;;16.79;72.59
17362;BME280;8798;51.938;4.348;2023-05-09T03:19:08;101577.41;;;16.81;72.51
17362;BME280;8798;51.938;4.348;2023-05-09T03:21:36;101579.28;;;16.80;72.68
17362;BME280;8798;51.938;4.348;2023-05-09T03:24:07;101558.75;;;16.77;72.89
17362;BME280;8798;51.938;4.348;2023-05-09T03:26:35;101565.22;;;16.76;72.78
17362;BME280;8798;51.938;4.348;2023-05-09T03:29:03;101569.59;;;16.77;72.78
17362;BME280;8798;51.938;4.348;2023-05-09T03:31:31;101572.19;;;16.79;72.80
17362;BME280;8798;51.938;4.348;2023-05-09T03:33:59;101582.84;;;16.81;73.05
17362;BME280;8798;51.938;4.348;2023-05-09T03:36:27;101579.28;;;16.80;72.96
17362;BME280;8798;51.938;4.348;2023-05-09T03:38:54;101579.28;;;16.80;72.99
17362;BME280;8798;51.938;4.348;2023-05-09T03:41:23;101572.19;;;16.79;72.88
17362;BME280;8798;51.938;4.348;2023-05-09T03:43:51;101559.63;;;16.78;72.66
17362;BME280;8798;51.938;4.348;2023-05-09T03:46:19;101561.47;;;16.77;73.17
17362;BME280;8798;51.938;4.348;2023-05-09T03:48:47;101560.47;;;16.79;72.69
17362;BME280;8798;51.938;4.348;2023-05-09T03:51:15;101556.19;;;16.76;72.89
17362;BME280;8798;51.938;4.348;2023-05-09T03:53:46;101554.34;;;16.76;72.85
17362;BME280;8798;51.938;4.348;2023-05-09T03:56:14;101559.78;;;16.76;73.17
17362;BME280;8798;51.938;4.348;2023-05-09T03:58:43;101565.06;;;16.78;73.08
17362;BME280;8798;51.938;4.348;2023-05-09T04:01:11;101566.75;;;16.79;73.11
17362;BME280;8798;51.938;4.348;2023-05-09T04:03:39;101568.44;;;16.80;73.16
17362;BME280;8798;51.938;4.348;2023-05-09T04:06:07;101561.47;;;16.77;73.19
17362;BME280;8798;51.938;4.348;2023-05-09T04:08:35;101562.34;;;16.78;73.22
17362;BME280;8798;51.938;4.348;2023-05-09T04:11:03;101557.91;;;16.77;73.28
17362;BME280;8798;51.938;4.348;2023-05-09T04:13:32;101561.34;;;16.79;73.44
17362;BME280;8798;51.938;4.348;2023-05-09T04:16:01;101567.59;;;16.80;73.27
17362;BME280;8798;51.938;4.348;2023-05-09T04:18:29;101564.06;;;16.79;73.58
17362;BME280;8798;51.938;4.348;2023-05-09T04:20:57;101556.91;;;16.78;73.37
17362;BME280;8798;51.938;4.348;2023-05-09T04:23:25;101559.63;;;16.78;73.26
17362;BME280;8798;51.938;4.348;2023-05-09T04:25:53;101552.47;;;16.77;73.74
17362;BME280;8798;51.938;4.348;2023-05-09T04:28:22;101539.25;;;16.74;73.47
17362;BME280;8798;51.938;4.348;2023-05-09T04:30:50;101535.69;;;16.73;73.35
17362;BME280;8798;51.938;4.348;2023-05-09T04:33:19;101543.66;;;16.75;73.70
17362;BME280;8798;51.938;4.348;2023-05-09T04:35:47;101540.78;;;16.76;73.54
17362;BME280;8798;51.938;4.348;2023-05-09T04:38:15;101548.94;;;16.76;73.68
17362;BME280;8798;51.938;4.348;2023-05-09T04:40:43;101539.09;;;16.75;73.66
17362;BME280;8798;51.938;4.348;2023-05-09T04:43:11;101523.31;;;16.71;73.69
17362;BME280;8798;51.938;4.348;2023-05-09T04:45:39;101517.91;;;16.71;73.67
17362;BME280;8798;51.938;4.348;2023-05-09T04:48:07;101504.53;;;16.69;73.74
17362;BME280;8798;51.938;4.348;2023-05-09T04:50:36;101502.81;;;16.68;73.67
17362;BME280;8798;51.938;4.348;2023-05-09T04:53:04;101505.53;;;16.68;74.08
17362;BME280;8798;51.938;4.348;2023-05-09T04:55:33;101503.66;;;16.69;74.11
17362;BME280;8798;51.938;4.348;2023-05-09T04:58:01;101512.66;;;16.69;74.22
17362;BME280;8798;51.938;4.348;2023-05-09T05:00:29;101516.22;;;16.70;74.08
17362;BME280;8798;51.938;4.348;2023-05-09T05:02:57;101507.25;;;16.69;73.87
17362;BME280;8798;51.938;4.348;2023-05-09T05:05:25;101495.88;;;16.66;74.06
17362;BME280;8798;51.938;4.348;2023-05-09T05:07:54;101470.31;;;16.60;74.25
17362;BME280;8798;51.938;4.348;2023-05-09T05:10:22;101444.72;;;16.54;74.12
17362;BME280;8798;51.938;4.348;2023-05-09T05:12:50;101443.03;;;16.53;74.15
17362;BME280;8798;51.938;4.348;2023-05-09T05:15:18;101429.00;;;16.50;74.32
17362;BME280;8798;51.938;4.348;2023-05-09T05:17:49;101416.63;;;16.47;74.14
17362;BME280;8798;51.938;4.348;2023-05-09T05:20:17;101424.75;;;16.47;74.54
17362;BME280;8798;51.938;4.348;2023-05-09T05:22:45;101412.19;;;16.46;74.26
17362;BME280;8798;51.938;4.348;2023-05-09T05:25:14;101409.84;;;16.43;74.43
17362;BME280;8798;51.938;4.348;2023-05-09T05:27:43;101401.88;;;16.42;74.76
17362;BME280;8798;51.938;4.348;2023-05-09T05:30:11;101393.94;;;16.40;74.58
17362;BME280;8798;51.938;4.348;2023-05-09T05:32:41;101375.47;;;16.36;74.62
17362;BME280;8798;51.938;4.348;2023-05-09T05:35:09;101368.38;;;16.34;74.73
17362;BME280;8798;51.938;4.348;2023-05-09T05:37:38;101376.31;;;16.36;74.92
17362;BME280;8798;51.938;4.348;2023-05-09T05:40:07;101386.16;;;16.37;74.62
17362;BME280;8798;51.938;4.348;2023-05-09T05:42:36;101382.41;;;16.38;75.02
17362;BME280;8798;51.938;4.348;2023-05-09T05:45:05;101388.69;;;16.39;75.04
17362;BME280;8798;51.938;4.348;2023-05-09T05:47:35;101401.25;;;16.40;75.11
17362;BME280;8798;51.938;4.348;2023-05-09T05:50:05;101395.81;;;16.40;75.03
17362;BME280;8798;51.938;4.348;2023-05-09T05:52:34;101398.69;;;16.38;75.11
17362;BME280;8798;51.938;4.348;2023-05-09T05:55:08;101394.09;;;16.39;75.30
17362;BME280;8798;51.938;4.348;2023-05-09T05:57:37;101390.56;;;16.38;75.26
17362;BME280;8798;51.938;4.348;2023-05-09T06:00:06;101392.44;;;16.38;75.21
17362;BME280;8798;51.938;4.348;2023-05-09T06:02:36;101395.81;;;16.40;75.36
17362;BME280;8798;51.938;4.348;2023-05-09T06:05:05;101410.22;;;16.40;75.30
17362;BME280;8798;51.938;4.348;2023-05-09T06:07:33;101414.44;;;16.43;75.35
17362;BME280;8798;51.938;4.348;2023-05-09T06:10:02;101412.56;;;16.43;75.40
17362;BME280;8798;51.938;4.348;2023-05-09T06:12:30;101423.41;;;16.43;75.49
17362;BME280;8798;51.938;4.348;2023-05-09T06:14:59;101425.09;;;16.44;75.57
17362;BME280;8798;51.938;4.348;2023-05-09T06:17:27;101417.31;;;16.41;75.33
17362;BME280;8798;51.938;4.348;2023-05-09T06:19:55;101385.50;;;16.35;75.45
17362;BME280;8798;51.938;4.348;2023-05-09T06:22:22;101376.00;;;16.31;75.60
17362;BME280;8798;51.938;4.348;2023-05-09T06:24:50;101359.91;;;16.29;75.79
17362;BME280;8798;51.938;4.348;2023-05-09T06:27:18;101367.88;;;16.31;75.83
17362;BME280;8798;51.938;4.348;2023-05-09T06:29:46;101370.41;;;16.32;75.75
17362;BME280;8798;51.938;4.348;2023-05-09T06:32:15;101376.00;;;16.31;75.93
17362;BME280;8798;51.938;4.348;2023-05-09T06:34:44;101367.03;;;16.30;75.61
17362;BME280;8798;51.938;4.348;2023-05-09T06:37:12;101354.69;;;16.28;75.94
17362;BME280;8798;51.938;4.348;2023-05-09T06:39:40;101330.97;;;16.22;75.96
17362;BME280;8798;51.938;4.348;2023-05-09T06:42:08;101283.25;;;16.12;75.63
17362;BME280;8798;51.938;4.348;2023-05-09T06:44:36;101267.69;;;16.06;76.10
17362;BME280;8798;51.938;4.348;2023-05-09T06:47:04;101242.16;;;16.01;75.86
17362;BME280;8798;51.938;4.348;2023-05-09T06:49:33;101229.13;;;15.96;76.19
17362;BME280;8798;51.938;4.348;2023-05-09T06:52:01;101226.59;;;15.95;76.13
17362;BME280;8798;51.938;4.348;2023-05-09T06:54:29;101210.69;;;15.91;75.98
17362;BME280;8798;51.938;4.348;2023-05-09T06:56:56;101219.66;;;15.92;76.01
17362;BME280;8798;51.938;4.348;2023-05-09T06:59:24;101237.25;;;15.96;76.01
17362;BME280;8798;51.938;4.348;2023-05-09T07:01:52;101246.91;;;15.99;76.10
17362;BME280;8798;51.938;4.348;2023-05-09T07:04:21;101264.50;;;16.03;76.20
17362;BME280;8798;51.938;4.348;2023-05-09T07:06:52;101278.72;;;16.05;76.12
17362;BME280;8798;51.938;4.348;2023-05-09T07:09:20;101298.00;;;16.10;76.53
17362;BME280;8798;51.938;4.348;2023-05-09T07:11:53;101328.16;;;16.15;76.32
17362;BME280;8798;51.938;4.348;2023-05-09T07:14:21;101346.75;;;16.18;76.56
17362;BME280;8798;51.938;4.348;2023-05-09T07:16:48;101357.91;;;16.23;76.35
17362;BME280;8798;51.938;4.348;2023-05-09T07:19:16;101368.41;;;16.26;76.54
17362;BME280;8798;51.938;4.348;2023-05-09T07:21:44;101360.47;;;16.25;76.30
17362;BME280;8798;51.938;4.348;2023-05-09T07:24:13;101359.59;;;16.24;76.39
17362;BME280;8798;51.938;4.348;2023-05-09T07:26:41;101353.53;;;16.22;76.63
17362;BME280;8798;51.938;4.348;2023-05-09T07:29:09;101337.59;;;16.19;76.55
17362;BME280;8798;51.938;4.348;2023-05-09T07:31:37;101340.13;;;16.21;76.75
17362;BME280;8798;51.938;4.348;2023-05-09T07:34:05;101362.31;;;16.24;76.72
17362;BME280;8798;51.938;4.348;2023-05-09T07:36:32;101368.41;;;16.26;76.82
17362;BME280;8798;51.938;4.348;2023-05-09T07:39:03;101360.25;;;16.26;76.69
17362;BME280;8798;51.938;4.348;2023-05-09T07:41:32;101364.84;;;16.26;76.98
17362;BME280;8798;51.938;4.348;2023-05-09T07:44:00;101367.56;;;16.26;77.06
17362;BME280;8798;51.938;4.348;2023-05-09T07:46:28;101369.25;;;16.27;76.92
17362;BME280;8798;51.938;4.348;2023-05-09T07:48:56;101385.84;;;16.32;76.84
17362;BME280;8798;51.938;4.348;2023-05-09T07:51:23;101400.94;;;16.34;76.96
17362;BME280;8798;51.938;4.348;2023-05-09T07:53:51;101411.41;;;16.38;76.86
17362;BME280;8798;51.938;4.348;2023-05-09T07:56:21;101418.16;;;16.42;77.11
17362;BME280;8798;51.938;4.348;2023-05-09T07:58:50;101429.88;;;16.42;77.07
17362;BME280;8798;51.938;4.348;2023-05-09T08:01:21;101413.75;;;16.41;76.88
17362;BME280;8798;51.938;4.348;2023-05-09T08:03:49;101414.59;;;16.41;77.11
17362;BME280;8798;51.938;4.348;2023-05-09T08:06:17;101437.47;;;16.47;76.98
17362;BME280;8798;51.938;4.348;2023-05-09T08:08:45;101451.53;;;16.50;77.06
17362;BME280;8798;51.938;4.348;2023-05-09T08:11:13;101458.31;;;16.54;77.08
17362;BME280;8798;51.938;4.348;2023-05-09T08:13:41;101462.84;;;16.54;77.39
17362;BME280;8798;51.938;4.348;2023-05-09T08:16:10;101457.44;;;16.54;77.21
17362;BME280;8798;51.938;4.348;2023-05-09T08:18:38;101464.38;;;16.56;77.38
17362;BME280;8798;51.938;4.348;2023-05-09T08:21:06;101449.28;;;16.54;77.37
17362;BME280;8798;51.938;4.348;2023-05-09T08:23:33;101457.09;;;16.57;77.36
17362;BME280;8798;51.938;4.348;2023-05-09T08:26:01;101470.31;;;16.60;77.48
17362;BME280;8798;51.938;4.348;2023-05-09T08:28:29;101475.38;;;16.63;77.49
17362;BME280;8798;51.938;4.348;2023-05-09T08:30:57;101478.09;;;16.63;77.50
17362;BME280;8798;51.938;4.348;2023-05-09T08:33:26;101484.03;;;16.67;77.56
17362;BME280;8798;51.938;4.348;2023-05-09T08:35:54;101479.59;;;16.66;77.50
17362;BME280;8798;51.938;4.348;2023-05-09T08:38:22;101469.78;;;16.65;77.37
17362;BME280;8798;51.938;4.348;2023-05-09T08:40:50;101465.34;;;16.64;77.35
17362;BME280;8798;51.938;4.348;2023-05-09T08:43:19;101466.03;;;16.66;77.30
17362;BME280;8798;51.938;4.348;2023-05-09T08:45:52;101472.97;;;16.68;77.82
17362;BME280;8798;51.938;4.348;2023-05-09T08:48:21;101469.25;;;16.69;77.40
17362;BME280;8798;51.938;4.348;2023-05-09T08:50:51;101455.19;;;16.66;77.72
17362;BME280;8798;51.938;4.348;2023-05-09T08:53:20;101455.19;;;16.66;77.81
17362;BME280;8798;51.938;4.348;2023-05-09T08:55:48;101454.19;;;16.67;77.85
17362;BME280;8798;51.938;4.348;2023-05-09T08:58:17;101434.69;;;16.63;77.91
17362;BME280;8798;51.938;4.348;2023-05-09T09:00:48;101407.25;;;16.58;77.66
17362;BME280;8798;51.938;4.348;2023-05-09T09:03:17;101392.16;;;16.55;77.81
17362;BME280;8798;51.938;4.348;2023-05-09T09:05:45;101370.63;;;16.54;77.93
17362;BME280;8798;51.938;4.348;2023-05-09T09:08:17;101379.81;;;16.53;77.81
17362;BME280;8798;51.938;4.348;2023-05-09T09:10:45;101385.91;;;16.55;77.91
17362;BME280;8798;51.938;4.348;2023-05-09T09:13:14;101369.78;;;16.53;77.91
17362;BME280;8798;51.938;4.348;2023-05-09T09:15:45;101385.69;;;16.56;77.96
17362;BME280;8798;51.938;4.348;2023-05-09T09:18:17;101372.13;;;16.56;77.97
17362;BME280;8798;51.938;4.348;2023-05-09T09:20:48;101369.44;;;16.56;78.06
17362;BME280;8798;51.938;4.348;2023-05-09T09:23:19;101372.13;;;16.56;77.88
17362;BME280;8798;51.938;4.348;2023-05-09T09:25:56;101373.66;;;16.59;78.15
17362;BME280;8798;51.938;4.348;2023-05-09T09:28:26;101359.63;;;16.55;78.35
17362;BME280;8798;51.938;4.348;2023-05-09T09:30:54;101328.63;;;16.50;78.13
17362;BME280;8798;51.938;4.348;2023-05-09T09:33:23;101316.28;;;16.47;78.26
17362;BME280;8798;51.938;4.348;2023-05-09T09:35:53;101318.16;;;16.47;78.26
17362;BME280;8798;51.938;4.348;2023-05-09T09:38:23;101328.81;;;16.48;78.26
17362;BME280;8798;51.938;4.348;2023-05-09T09:40:53;101332.19;;;16.50;78.27
17362;BME280;8798;51.938;4.348;2023-05-09T09:43:26;101316.06;;;16.49;78.31
17362;BME280;8798;51.938;4.348;2023-05-09T09:45:54;101311.69;;;16.48;78.46
17362;BME280;8798;51.938;4.348;2023-05-09T09:48:23;101305.59;;;16.46;78.71
17362;BME280;8798;51.938;4.348;2023-05-09T09:50:53;101315.25;;;16.48;78.40
17362;BME280;8798;51.938;4.348;2023-05-09T09:53:25;101312.53;;;16.48;78.32
17362;BME280;8798;51.938;4.348;2023-05-09T09:55:56;101305.44;;;16.47;78.54
17362;BME280;8798;51.938;4.348;2023-05-09T09:58:24;101315.91;;;16.50;78.69
17362;BME280;8798;51.938;4.348;2023-05-09T10:01:04;101302.50;;;16.49;78.69
17362;BME280;8798;51.938;4.348;2023-05-09T10:03:37;101296.44;;;16.47;78.63
17362;BME280;8798;51.938;4.348;2023-05-09T10:06:08;101298.13;;;16.48;78.65
17362;BME280;8798;51.938;4.348;2023-05-09T10:08:38;101304.38;;;16.48;78.71
17362;BME280;8798;51.938;4.348;2023-05-09T10:11:06;101300.84;;;16.48;78.88
17362;BME280;8798;51.938;4.348;2023-05-09T10:13:35;101297.97;;;16.49;79.13
17362;BME280;8798;51.938;4.348;2023-05-09T10:16:04;101308.59;;;16.51;78.94
17362;BME280;8798;51.938;4.348;2023-05-09T10:18:33;101301.50;;;16.50;79.06
17362;BME280;8798;51.938;4.348;2023-05-09T10:21:01;101291.03;;;16.47;79.00
17362;BME280;8798;51.938;4.348;2023-05-09T10:23:33;101271.38;;;16.45;79.31
17362;BME280;8798;51.938;4.348;2023-05-09T10:26:10;101267.16;;;16.42;79.15
17362;BME280;8798;51.938;4.348;2023-05-09T10:28:44;101258.16;;;16.42;79.28
17362;BME280;8798;51.938;4.348;2023-05-09T10:31:15;101254.59;;;16.41;78.93
17362;BME280;8798;51.938;4.348;2023-05-09T10:33:46;101267.78;;;16.44;79.22
17362;BME280;8798;51.938;4.348;2023-05-09T10:36:17;101259.84;;;16.43;79.12
17362;BME280;8798;51.938;4.348;2023-05-09T10:38:46;101264.91;;;16.46;79.30
17362;BME280;8798;51.938;4.348;2023-05-09T10:41:16;101284.41;;;16.49;79.57
17362;BME280;8798;51.938;4.348;2023-05-09T10:43:45;101311.63;;;16.56;79.37
17362;BME280;8798;51.938;4.348;2023-05-09T10:46:13;101316.88;;;16.58;79.46
17362;BME280;8798;51.938;4.348;2023-05-09T10:48:42;101318.75;;;16.57;79.56
17362;BME280;8798;51.938;4.348;2023-05-09T10:51:11;101322.09;;;16.59;79.66
17362;BME280;8798;51.938;4.348;2023-05-09T10:53:40;101346.66;;;16.66;79.79
17362;BME280;8798;51.938;4.348;2023-05-09T10:56:22;101386.13;;;16.76;79.51
17362;BME280;8798;51.938;4.348;2023-05-09T10:58:52;101415.28;;;16.83;79.96
17362;BME280;8798;51.938;4.348;2023-05-09T11:01:30;101438.97;;;16.89;79.75
17362;BME280;8798;51.938;4.348;2023-05-09T11:04:05;101426.44;;;16.88;79.86
17362;BME280;8798;51.938;4.348;2023-05-09T11:06:43;101426.28;;;16.89;79.91
17362;BME280;8798;51.938;4.348;2023-05-09T11:09:22;101409.31;;;16.87;80.10
17362;BME280;8798;51.938;4.348;2023-05-09T11:11:55;101403.69;;;16.89;80.05
17362;BME280;8798;51.938;4.348;2023-05-09T11:14:39;101399.97;;;16.90;79.84
17362;BME280;8798;51.938;4.348;2023-05-09T11:17:08;101408.09;;;16.90;80.18
17362;BME280;8798;51.938;4.348;2023-05-09T11:22:21;101414.88;;;16.94;80.36
17362;BME280;8798;51.938;4.348;2023-05-09T11:24:51;101424.53;;;16.96;80.18
17362;BME280;8798;51.938;4.348;2023-05-09T11:27:24;101424.34;;;16.98;80.37
17362;BME280;8798;51.938;4.348;2023-05-09T11:29:55;101440.25;;;17.01;80.29
17362;BME280;8798;51.938;4.348;2023-05-09T11:32:27;101457.72;;;17.07;80.15
17362;BME280;8798;51.938;4.348;2023-05-09T11:35:04;101449.56;;;17.07;80.45
17362;BME280;8798;51.938;4.348;2023-05-09T11:37:33;101436.16;;;17.05;80.50
17362;BME280;8798;51.938;4.348;2023-05-09T11:40:06;101410.59;;;17.00;80.31
17362;BME280;8798;51.938;4.348;2023-05-09T11:42:44;101394.47;;;16.98;80.86
17362;BME280;8798;51.938;4.348;2023-05-09T11:45:13;101398.69;;;17.01;80.66
17362;BME280;8798;51.938;4.348;2023-05-09T11:47:42;101382.41;;;17.01;80.40
17362;BME280;8798;51.938;4.348;2023-05-09T11:50:12;101368.75;;;16.94;80.52
17362;BME280;8798;51.938;4.348;2023-05-09T11:52:40;101343.63;;;16.92;80.60
17362;BME280;8798;51.938;4.348;2023-05-09T11:55:10;101335.66;;;16.90;80.78
17362;BME280;8798;51.938;4.348;2023-05-09T11:57:43;101322.28;;;16.89;80.80
17362;BME280;8798;51.938;4.348;2023-05-09T12:00:13;101305.53;;;16.85;80.79
17362;BME280;8798;51.938;4.348;2023-05-09T12:02:43;101301.97;;;16.85;80.69
17362;BME280;8798;51.938;4.348;2023-05-09T12:05:12;101304.47;;;16.86;80.82
17362;BME280;8798;51.938;4.348;2023-05-09T12:07:41;101305.97;;;16.89;81.11
17362;BME280;8798;51.938;4.348;2023-05-09T12:10:11;101331.56;;;16.94;80.88
17362;BME280;8798;51.938;4.348;2023-05-09T12:12:45;101312.09;;;16.91;80.98
17362;BME280;8798;51.938;4.348;2023-05-09T12:15:14;101305.81;;;16.90;80.67
17362;BME280;8798;51.938;4.348;2023-05-09T12:17:44;101308.34;;;16.92;80.74
17362;BME280;8798;51.938;4.348;2023-05-09T12:20:16;101302.72;;;16.93;81.13
17362;BME280;8798;51.938;4.348;2023-05-09T12:22:51;101306.09;;;16.95;80.85
17362;BME280;8798;51.938;4.348;2023-05-09T12:25:21;101332.72;;;17.00;80.82
17362;BME280;8798;51.938;4.348;2023-05-09T12:27:50;101327.09;;;17.02;81.24
17362;BME280;8798;51.938;4.348;2023-05-09T12:30:20;101327.28;;;17.00;80.84
17362;BME280;8798;51.938;4.348;2023-05-09T12:32:48;101316.41;;;17.00;80.98
17362;BME280;8798;51.938;4.348;2023-05-09T12:35:16;101318.09;;;17.01;80.92
17362;BME280;8798;51.938;4.348;2023-05-09T12:37:53;101313.72;;;17.00;81.13
17362;BME280;8798;51.938;4.348;2023-05-09T12:40:22;101284.41;;;16.95;81.37
17362;BME280;8798;51.938;4.348;2023-05-09T12:42:51;101263.22;;;16.91;81.19
17362;BME280;8798;51.938;4.348;2023-05-09T12:45:25;101268.47;;;16.92;81.44
17362;BME280;8798;51.938;4.348;2023-05-09T12:47:55;101292.16;;;16.98;81.50
17362;BME280;8798;51.938;4.348;2023-05-09T12:50:30;101303.53;;;17.02;81.27
17362;BME280;8798;51.938;4.348;2023-05-09T12:53:01;101274.38;;;16.96;81.32
17362;BME280;8798;51.938;4.348;2023-05-09T12:55:30;101250.16;;;16.94;81.12
17362;BME280;8798;51.938;4.348;2023-05-09T12:58:01;101261.84;;;16.95;81.40
17362;BME280;8798;51.938;4.348;2023-05-09T13:00:40;101269.63;;;16.98;81.35
17362;BME280;8798;51.938;4.348;2023-05-09T13:03:22;101276.53;;;17.01;81.24
17362;BME280;8798;51.938;4.348;2023-05-09T13:05:54;101279.09;;;17.02;81.48
17362;BME280;8798;51.938;4.348;2023-05-09T13:08:23;101285.19;;;17.04;81.10
17362;BME280;8798;51.938;4.348;2023-05-09T13:10:50;101309.69;;;17.11;81.52
17362;BME280;8798;51.938;4.348;2023-05-09T13:13:35;101334.94;;;17.19;81.13
17362;BME280;8798;51.938;4.348;2023-05-09T13:16:03;101339.53;;;17.19;81.44